Time;durP1;ratioP1;P1;durP2;ratioP2;P2;SDS_P1;SDS_P2;PMS_P1;PMS_P2;Temp;Humidity;BMP_temperature;BMP_pressure;BME280_temperature;BME280_humidity;BME280_pressure;Samples;Min_cycle;Max_cycle;Signal;HPM_P1;HPM_P2
2021/06/23 00:01:15;;;;;;;24.13;11.75;;;717.00;2380.80;;;;;;4909298;29;20032;-83
2021/06/23 00:03:41;;;;;;;34.65;11.43;;;716.90;2380.80;;;;;;4896649;29;20088;-82
2021/06/23 00:06:07;;;;;;;31.27;11.05;;;716.80;2406.40;;;;;;4896458;29;20048;-85
2021/06/23 00:08:33;;;;;;;28.88;10.57;;;716.90;2380.80;;;;;;4900908;29;20035;-82
2021/06/23 00:11:01;;;;;;;31.80;10.80;;;717.00;2380.80;;;;;;4919626;29;20405;-83
2021/06/23 00:13:31;;;;;;;28.05;11.65;;;717.00;2380.80;;;;;;4917117;29;20103;-84
2021/06/23 00:15:57;;;;;;;46.55;10.50;;;716.90;2380.80;;;;;;4901876;29;20409;-83
2021/06/23 00:18:22;;;;;;;27.70;12.27;;;716.80;2406.40;;;;;;4898706;29;20490;-83
2021/06/23 00:20:48;;;;;;;26.65;12.43;;;691.90;2406.40;;;;;;4912135;29;20047;-84
2021/06/23 00:23:14;;;;;;;34.25;13.05;;;691.90;2406.40;;;;;;4893572;29;20032;-83
2021/06/23 00:25:39;;;;;;;31.10;10.73;;;692.00;2406.40;;;;;;4902199;29;20118;-83
2021/06/23 00:28:05;;;;;;;27.80;12.10;;;692.00;2432.00;;;;;;4898341;29;20067;-83
2021/06/23 00:30:31;;;;;;;31.38;11.27;;;716.80;2432.00;;;;;;4908317;29;20494;-84
2021/06/23 00:33:07;;;;;;;29.13;13.65;;;716.80;2432.00;;;;;;4889209;29;20021;-83
2021/06/23 00:35:34;;;;;;;37.50;11.90;;;692.10;2432.00;;;;;;4903920;29;20512;-83
2021/06/23 00:38:00;;;;;;;25.20;10.38;;;716.80;2432.00;;;;;;4895131;29;20466;-83
2021/06/23 00:40:27;;;;;;;35.35;10.90;;;716.80;2432.00;;;;;;4890321;29;20040;-84
2021/06/23 00:42:53;;;;;;;32.67;10.93;;;716.80;2432.00;;;;;;4883663;29;20025;-83
2021/06/23 00:45:19;;;;;;;27.35;11.45;;;692.00;2406.40;;;;;;4887564;29;20490;-83
2021/06/23 00:47:46;;;;;;;31.17;11.13;;;692.00;2406.40;;;;;;4887071;29;20085;-83
2021/06/23 00:50:15;;;;;;;31.23;12.30;;;692.10;2406.40;;;;;;4885872;29;20033;-83
2021/06/23 00:52:41;;;;;;;25.23;10.50;;;716.80;2432.00;;;;;;4905531;29;20490;-83
2021/06/23 00:55:08;;;;;;;32.65;11.88;;;692.00;2406.40;;;;;;4877443;29;20029;-83
2021/06/23 00:57:34;;;;;;;29.08;10.20;;;691.90;2432.00;;;;;;4891675;29;20059;-83
2021/06/23 01:00:00;;;;;;;34.33;11.75;;;691.80;2432.00;;;;;;4891333;29;20056;-83
2021/06/23 01:02:27;;;;;;;35.38;11.65;;;691.80;2432.00;;;;;;4889886;29;20123;-83
2021/06/23 01:04:54;;;;;;;34.67;11.38;;;691.80;2432.00;;;;;;4889692;29;20033;-84
2021/06/23 01:07:21;;;;;;;35.15;13.30;;;691.70;2432.00;;;;;;4887619;29;20123;-84
2021/06/23 01:09:47;;;;;;;24.83;9.48;;;691.80;2432.00;;;;;;4893947;29;20040;-83
2021/06/23 01:12:28;;;;;;;41.25;14.88;;;692.00;2432.00;;;;;;4890744;29;20039;-82
2021/06/23 01:14:59;;;;;;;42.40;16.65;;;691.90;2432.00;;;;;;4887200;29;20081;-83
2021/06/23 01:17:29;;;;;;;35.55;13.43;;;691.80;2432.00;;;;;;4882689;29;20040;-83
2021/06/23 01:20:11;;;;;;;33.47;12.73;;;691.90;2432.00;;;;;;4885481;29;20033;-82
2021/06/23 01:22:40;;;;;;;37.35;13.98;;;692.00;2432.00;;;;;;4891015;29;20028;-83
2021/06/23 01:25:11;;;;;;;39.33;11.40;;;691.90;2432.00;;;;;;4894004;29;20040;-83
2021/06/23 01:27:39;;;;;;;29.13;11.50;;;691.90;2432.00;;;;;;4897566;29;20123;-84
2021/06/23 01:30:05;;;;;;;31.75;11.45;;;691.90;2432.00;;;;;;4897948;29;20040;-83
2021/06/23 01:32:31;;;;;;;31.35;12.90;;;691.90;2432.00;;;;;;4892759;29;20025;-83
2021/06/23 01:34:58;;;;;;;38.40;14.82;;;691.80;2432.00;;;;;;4892885;29;20025;-83
2021/06/23 01:37:23;;;;;;;49.20;15.55;;;691.70;2432.00;;;;;;4881947;29;20056;-84
2021/06/23 01:39:49;;;;;;;45.78;20.00;;;691.80;2432.00;;;;;;4914128;29;20020;-84
2021/06/23 01:42:15;;;;;;;52.25;19.48;;;691.80;2432.00;;;;;;4893663;29;20672;-83
2021/06/23 01:44:41;;;;;;;39.13;15.75;;;691.80;2432.00;;;;;;4884400;29;20072;-83
2021/06/23 01:47:07;;;;;;;30.17;12.55;;;691.70;2432.00;;;;;;4916775;29;20398;-83
2021/06/23 01:49:32;;;;;;;31.45;10.35;;;691.70;2432.00;;;;;;4936838;29;20043;-83
2021/06/23 01:51:59;;;;;;;40.13;14.25;;;691.80;2432.00;;;;;;4936992;29;20490;-83
2021/06/23 01:54:24;;;;;;;33.03;11.18;;;691.60;2432.00;;;;;;4919489;29;20027;-84
2021/06/23 01:56:50;;;;;;;35.90;11.40;;;691.50;2432.00;;;;;;4919680;29;20393;-82
2021/06/23 01:59:16;;;;;;;35.40;11.43;;;691.60;2432.00;;;;;;4913661;29;20055;-82
2021/06/23 02:02:15;;;;;;;32.58;14.05;;;691.70;2432.00;;;;;;4928509;29;20493;-83
2021/06/23 02:04:51;;;;;;;34.42;13.07;;;691.60;2432.00;;;;;;4848351;29;20570;-83
2021/06/23 02:07:36;;;;;;;26.55;11.07;;;691.40;2432.00;;;;;;4821505;29;20713;-83
2021/06/23 02:10:25;;;;;;;22.17;10.02;;;691.40;2432.00;;;;;;4850063;29;20034;-83
2021/06/23 02:13:09;;;;;;;33.53;12.32;;;666.50;2432.00;;;;;;4838178;29;20080;-84
2021/06/23 02:15:35;;;;;;;36.17;11.02;;;666.30;2432.00;;;;;;4843802;29;20041;-84
2021/06/23 02:18:03;;;;;;;32.45;11.13;;;666.30;2432.00;;;;;;4830663;29;20041;-84
2021/06/23 02:20:33;;;;;;;33.70;11.23;;;666.50;2432.00;;;;;;4843494;29;20037;-82
2021/06/23 02:23:00;;;;;;;23.55;10.02;;;691.20;2432.00;;;;;;4843396;29;20065;-84
2021/06/23 02:25:26;;;;;;;31.00;10.38;;;666.50;2432.00;;;;;;4843947;29;20034;-84
2021/06/23 02:27:52;;;;;;;35.33;9.55;;;691.20;2432.00;;;;;;4843105;29;20061;-84
2021/06/23 02:30:18;;;;;;;29.48;11.48;;;666.50;2432.00;;;;;;4858408;29;20410;-83
2021/06/23 02:32:45;;;;;;;23.33;8.95;;;666.50;2432.00;;;;;;4858490;29;20029;-84
2021/06/23 02:35:11;;;;;;;36.40;10.30;;;666.50;2432.00;;;;;;4843332;29;20495;-84
2021/06/23 02:37:37;;;;;;;29.98;10.38;;;666.50;2432.00;;;;;;4843152;29;20538;-84
2021/06/23 02:40:06;;;;;;;32.85;11.05;;;666.30;2432.00;;;;;;4858348;29;20026;-83
2021/06/23 02:42:32;;;;;;;24.95;9.80;;;666.30;2432.00;;;;;;4895967;29;20036;-83
2021/06/23 02:44:58;;;;;;;34.33;9.80;;;666.30;2432.00;;;;;;4891240;29;20028;-83
2021/06/23 02:47:24;;;;;;;40.00;11.77;;;666.20;2432.00;;;;;;4918001;29;20030;-83
2021/06/23 02:49:51;;;;;;;36.25;9.63;;;666.20;2432.00;;;;;;4935275;29;20032;-83
2021/06/23 02:52:17;;;;;;;37.83;12.55;;;666.30;2432.00;;;;;;4918414;29;20027;-83
2021/06/23 02:54:45;;;;;;;28.92;10.10;;;666.30;2432.00;;;;;;4925728;29;20127;-83
2021/06/23 02:57:11;;;;;;;33.50;11.07;;;666.30;2432.00;;;;;;4901517;29;20027;-83
2021/06/23 02:59:37;;;;;;;29.02;10.65;;;666.20;2432.00;;;;;;4892844;29;20028;-83
2021/06/23 03:02:04;;;;;;;33.03;11.63;;;666.30;2432.00;;;;;;4899001;29;20036;-83
2021/06/23 03:04:31;;;;;;;29.25;11.23;;;666.30;2432.00;;;;;;4931104;29;20028;-83
2021/06/23 03:07:19;;;;;;;25.02;11.63;;;666.30;2432.00;;;;;;4927508;29;20032;-84
2021/06/23 03:09:45;;;;;;;29.45;9.82;;;666.40;2432.00;;;;;;4929123;29;20035;-83
2021/06/23 03:12:12;;;;;;;36.10;11.80;;;666.40;2432.00;;;;;;4918317;29;20059;-83
2021/06/23 03:14:38;;;;;;;32.15;10.73;;;666.40;2432.00;;;;;;4906183;29;20020;-83
2021/06/23 03:17:04;;;;;;;29.40;11.32;;;666.40;2432.00;;;;;;4916635;29;20024;-82
2021/06/23 03:19:30;;;;;;;29.55;11.80;;;666.20;2432.00;;;;;;4916712;29;20091;-81
2021/06/23 03:21:56;;;;;;;29.23;10.45;;;666.30;2432.00;;;;;;4935654;29;20421;-84
2021/06/23 03:24:22;;;;;;;33.17;10.95;;;666.30;2432.00;;;;;;4917967;29;20162;-85
2021/06/23 03:26:47;;;;;;;29.58;11.57;;;666.30;2432.00;;;;;;4918774;29;20441;-84
2021/06/23 03:29:22;;;;;;;24.73;12.10;;;666.40;2432.00;;;;;;4934296;29;20031;-84
2021/06/23 03:31:48;;;;;;;35.28;11.07;;;666.50;2432.00;;;;;;4905794;29;20040;-84
2021/06/23 03:34:14;;;;;;;37.80;12.32;;;666.50;2432.00;;;;;;4899448;29;20040;-75
2021/06/23 03:36:40;;;;;;;49.28;13.95;;;691.20;2432.00;;;;;;4909351;29;20036;-75
2021/06/23 03:39:06;;;;;;;40.72;14.15;;;691.20;2432.00;;;;;;4913625;29;20100;-74
2021/06/23 03:41:32;;;;;;;32.45;11.73;;;691.20;2432.00;;;;;;4924818;29;20067;-75
2021/06/23 03:43:57;;;;;;;36.90;11.90;;;691.20;2432.00;;;;;;4934638;29;20032;-74
2021/06/23 03:46:23;;;;;;;33.85;12.02;;;691.20;2432.00;;;;;;4923665;29;20028;-75
2021/06/23 03:48:49;;;;;;;32.05;12.85;;;691.20;2432.00;;;;;;4915708;29;20575;-74
2021/06/23 03:51:15;;;;;;;36.15;13.68;;;691.20;2432.00;;;;;;4915549;29;20437;-74
2021/06/23 03:53:41;;;;;;;31.27;13.68;;;691.20;2432.00;;;;;;4902360;29;20039;-75
2021/06/23 03:56:06;;;;;;;33.08;13.82;;;691.30;2432.00;;;;;;4908408;29;20032;-74
2021/06/23 03:58:32;;;;;;;41.88;13.68;;;691.40;2432.00;;;;;;4911940;29;20468;-74
2021/06/23 04:00:58;;;;;;;30.35;10.75;;;691.50;2432.00;;;;;;4898492;29;20039;-75
2021/06/23 04:03:24;;;;;;;33.92;12.00;;;691.60;2432.00;;;;;;4897480;29;20032;-74
2021/06/23 04:05:50;;;;;;;37.70;12.43;;;691.80;2432.00;;;;;;4912329;29;20553;-75
2021/06/23 04:08:16;;;;;;;32.90;11.65;;;691.90;2432.00;;;;;;4908120;29;20076;-75
2021/06/23 04:10:41;;;;;;;37.47;12.32;;;692.00;2432.00;;;;;;4913586;29;20044;-75
2021/06/23 04:13:07;;;;;;;38.58;12.55;;;716.80;2432.00;;;;;;4898172;29;20024;-75
2021/06/23 04:15:33;;;;;;;29.25;13.18;;;716.90;2432.00;;;;;;4904476;29;20099;-75
2021/06/23 04:17:59;;;;;;;32.78;12.52;;;692.00;2432.00;;;;;;4897046;29;20103;-74
2021/06/23 04:20:24;;;;;;;36.15;12.98;;;716.80;2432.00;;;;;;4914288;29;20111;-74
2021/06/23 04:22:50;;;;;;;33.55;11.35;;;716.90;2432.00;;;;;;4903235;29;20050;-75
2021/06/23 04:25:16;;;;;;;30.80;12.60;;;716.90;2432.00;;;;;;4908599;29;20028;-74
2021/06/23 04:27:42;;;;;;;30.67;11.02;;;717.10;2432.00;;;;;;4914146;29;20119;-75
2021/06/23 04:30:10;;;;;;;33.33;12.63;;;717.40;2432.00;;;;;;4909797;29;20032;-75
2021/06/23 04:32:36;;;;;;;39.88;16.65;;;717.40;2432.00;;;;;;4900206;29;20043;-75
2021/06/23 04:35:05;;;;;;;35.10;14.75;;;717.40;2432.00;;;;;;4901457;29;20032;-75
2021/06/23 04:37:31;;;;;;;37.08;13.07;;;717.40;2432.00;;;;;;4911638;29;20131;-72
2021/06/23 04:39:57;;;;;;;30.73;11.32;;;717.50;2432.00;;;;;;4914424;29;20047;-73
2021/06/23 04:42:23;;;;;;;36.50;12.68;;;717.60;2432.00;;;;;;4916563;29;20466;-73
2021/06/23 04:44:48;;;;;;;35.92;12.30;;;717.60;2432.00;;;;;;4918137;29;20020;-73
2021/06/23 04:47:14;;;;;;;26.45;10.77;;;717.70;2432.00;;;;;;4916260;29;20138;-73
2021/06/23 04:49:40;;;;;;;31.33;12.15;;;717.70;2432.00;;;;;;4901172;29;20115;-72
2021/06/23 04:52:06;;;;;;;41.65;15.15;;;742.60;2432.00;;;;;;4907075;29;20039;-73
2021/06/23 04:54:32;;;;;;;40.50;13.95;;;742.70;2432.00;;;;;;4918442;29;20088;-73
2021/06/23 04:56:57;;;;;;;32.45;12.68;;;743.00;2406.40;;;;;;4911358;29;20482;-73
2021/06/23 04:59:23;;;;;;;29.10;12.18;;;742.90;2406.40;;;;;;4905751;29;20095;-73
2021/06/23 05:01:49;;;;;;;32.60;13.23;;;743.10;2406.40;;;;;;4912350;29;20070;-73
2021/06/23 05:04:15;;;;;;;31.42;13.50;;;743.20;2380.80;;;;;;4897831;29;20474;-74
2021/06/23 05:06:40;;;;;;;29.67;12.90;;;743.10;2380.80;;;;;;4891946;28;20043;-74
2021/06/23 05:09:06;;;;;;;34.03;11.98;;;743.20;2380.80;;;;;;4907698;29;20040;-75
2021/06/23 05:11:33;;;;;;;28.02;10.95;;;768.10;2355.20;;;;;;4907390;29;20155;-81
2021/06/23 05:14:00;;;;;;;41.83;12.13;;;768.40;2278.40;;;;;;4913374;29;20039;-82
2021/06/23 05:16:27;;;;;;;31.20;10.93;;;768.50;2227.20;;;;;;4897888;29;20550;-81
2021/06/23 05:18:54;;;;;;;29.90;11.30;;;793.60;2150.40;;;;;;4901399;29;20111;-87
2021/06/23 05:21:20;;;;;;;31.83;10.45;;;793.80;2150.40;;;;;;4917582;29;20036;-86
2021/06/23 05:23:46;;;;;;;25.80;10.40;;;794.10;2124.80;;;;;;4893472;29;20057;-86
2021/06/23 05:26:12;;;;;;;27.58;9.18;;;794.30;2099.20;;;;;;4914518;29;20028;-84
2021/06/23 05:28:38;;;;;;;21.08;8.38;;;794.40;2048.00;;;;;;4890342;29;20553;-82
2021/06/23 05:31:04;;;;;;;41.67;11.98;;;819.30;2022.40;;;;;;4893237;29;20043;-84
2021/06/23 05:33:30;;;;;;;24.30;10.35;;;819.50;2022.40;;;;;;4895253;29;20028;-83
2021/06/23 05:35:55;;;;;;;24.73;9.02;;;819.70;1971.20;;;;;;4915210;29;20056;-82
2021/06/23 05:38:21;;;;;;;20.17;8.05;;;819.70;1971.20;;;;;;4904804;29;20063;-83
2021/06/23 05:40:47;;;;;;;29.20;10.65;;;819.80;1945.60;;;;;;4902601;29;20037;-83
2021/06/23 05:43:13;;;;;;;21.60;9.13;;;819.90;1945.60;;;;;;4910837;29;20029;-83
2021/06/23 05:45:39;;;;;;;28.33;10.43;;;820.00;1945.60;;;;;;4898277;29;20402;-83
2021/06/23 05:48:05;;;;;;;29.15;8.98;;;820.10;1945.60;;;;;;4892922;29;20044;-83
2021/06/23 05:50:31;;;;;;;26.25;9.40;;;845.00;1945.60;;;;;;4892097;29;20031;-83
2021/06/23 05:52:57;;;;;;;25.48;9.00;;;844.90;1945.60;;;;;;4908438;29;20037;-83
2021/06/23 05:55:22;;;;;;;26.92;10.35;;;844.90;1945.60;;;;;;4892573;29;20032;-83
2021/06/23 05:57:55;;;;;;;29.25;10.13;;;845.00;1945.60;;;;;;4900450;29;20020;-83
2021/06/23 06:00:23;;;;;;;32.72;9.90;;;845.10;1920.00;;;;;;4896101;29;20035;-82
2021/06/23 06:02:49;;;;;;;24.77;8.40;;;845.30;1920.00;;;;;;4911479;29;20024;-83
2021/06/23 06:05:15;;;;;;;24.17;9.70;;;845.50;1868.80;;;;;;4909357;29;20501;-83
2021/06/23 06:07:42;;;;;;;21.50;7.65;;;870.50;1843.20;;;;;;4910081;29;20040;-83
2021/06/23 06:10:10;;;;;;;26.65;9.75;;;870.50;1817.60;;;;;;4891847;29;20036;-83
2021/06/23 06:12:36;;;;;;;29.77;8.23;;;870.60;1843.20;;;;;;4909226;29;20058;-81
2021/06/23 06:15:03;;;;;;;25.77;8.75;;;870.80;1817.60;;;;;;4897250;29;20387;-81
2021/06/23 06:17:28;;;;;;;30.17;10.85;;;870.90;1817.60;;;;;;4887527;29;20092;-81
2021/06/23 06:19:55;;;;;;;25.65;9.63;;;870.90;1792.00;;;;;;4908640;29;20021;-82
2021/06/23 06:22:20;;;;;;;23.08;7.68;;;871.10;1766.40;;;;;;4908674;29;20493;-81
2021/06/23 06:24:46;;;;;;;21.85;7.82;;;871.10;1740.80;;;;;;4894117;29;20068;-82
2021/06/23 06:27:12;;;;;;;26.73;7.68;;;871.20;1715.20;;;;;;4896508;29;20032;-81
2021/06/23 06:29:38;;;;;;;23.70;8.38;;;871.20;1715.20;;;;;;4893732;29;20450;-81
2021/06/23 06:32:04;;;;;;;21.85;8.75;;;871.20;1715.20;;;;;;4889492;29;20063;-81
2021/06/23 06:34:30;;;;;;;23.15;7.60;;;871.30;1715.20;;;;;;4899608;29;20111;-81
2021/06/23 06:36:55;;;;;;;19.73;7.60;;;871.30;1715.20;;;;;;4892429;29;20111;-81
2021/06/23 06:39:21;;;;;;;18.20;7.10;;;896.10;1689.60;;;;;;4914621;29;20524;-81
2021/06/23 06:41:47;;;;;;;25.13;8.30;;;896.20;1664.00;;;;;;4908440;29;20098;-83
2021/06/23 06:44:13;;;;;;;27.75;8.20;;;896.20;1638.40;;;;;;4908250;29;20067;-82
2021/06/23 06:46:38;;;;;;;23.90;6.50;;;896.30;1612.80;;;;;;4909061;29;20028;-80
2021/06/23 06:49:04;;;;;;;25.38;8.23;;;896.40;1612.80;;;;;;4894338;29;20183;-81
2021/06/23 06:51:31;;;;;;;16.35;7.38;;;896.70;1612.80;;;;;;4892767;29;20040;-81
2021/06/23 06:53:58;;;;;;;23.17;8.80;;;896.90;1587.20;;;;;;4907156;29;20028;-82
2021/06/23 06:56:24;;;;;;;19.30;6.68;;;921.90;1587.20;;;;;;4888495;29;20020;-82
2021/06/23 06:58:50;;;;;;;14.40;6.70;;;921.80;1536.00;;;;;;4874814;29;20036;-83
2021/06/23 07:01:16;;;;;;;19.20;6.10;;;922.10;1510.40;;;;;;4890653;29;20079;-84
2021/06/23 07:03:42;;;;;;;15.00;5.90;;;922.20;1510.40;;;;;;4891779;29;20029;-82
2021/06/23 07:06:08;;;;;;;20.30;6.88;;;922.20;1459.20;;;;;;4902843;29;20024;-83
2021/06/23 07:08:33;;;;;;;21.58;5.68;;;947.20;1459.20;;;;;;4909678;29;20047;-82
2021/06/23 07:10:59;;;;;;;16.88;6.97;;;947.20;1459.20;;;;;;4896507;29;20028;-84
2021/06/23 07:13:25;;;;;;;15.05;6.65;;;947.20;1433.60;;;;;;4893691;29;20505;-81
2021/06/23 07:15:51;;;;;;;16.83;6.78;;;922.40;1459.20;;;;;;4885312;29;20096;-82
2021/06/23 07:18:17;;;;;;;21.70;6.97;;;947.20;1459.20;;;;;;4909458;29;20031;-81
2021/06/23 07:20:42;;;;;;;18.23;8.35;;;947.30;1433.60;;;;;;4909503;29;20040;-80
2021/06/23 07:23:08;;;;;;;15.15;6.72;;;947.60;1408.00;;;;;;4892353;29;20434;-82
2021/06/23 07:25:34;;;;;;;13.18;5.88;;;947.90;1408.00;;;;;;4897405;29;20035;-80
2021/06/23 07:28:00;;;;;;;17.83;6.55;;;972.80;1408.00;;;;;;4904883;29;20024;-81
2021/06/23 07:30:27;;;;;;;18.02;6.53;;;948.10;1356.80;;;;;;4889155;29;20071;-81
2021/06/23 07:32:59;;;;;;;14.13;6.28;;;948.10;1356.80;;;;;;4890000;29;20036;-80
2021/06/23 07:38:13;;;;;;;20.08;6.07;;;972.90;1356.80;;;;;;4902756;29;20140;-82
2021/06/23 07:40:43;;;;;;;18.77;4.88;;;973.30;1280.00;;;;;;4888804;29;20119;-82
2021/06/23 07:43:13;;;;;;;10.73;5.75;;;973.30;1331.20;;;;;;4891045;29;20028;-82
2021/06/23 07:45:44;;;;;;;12.63;5.72;;;973.40;1305.60;;;;;;4908562;29;20027;-81
2021/06/23 07:48:10;;;;;;;12.07;6.03;;;973.50;1305.60;;;;;;4908567;29;20084;-80
2021/06/23 07:50:42;;;;;;;14.70;4.82;;;973.50;1280.00;;;;;;4899828;29;20044;-81
2021/06/23 07:56:10;;;;;;;10.75;5.07;;;973.50;1228.80;;;;;;4868615;29;20116;-80
2021/06/23 08:02:12;;;;;;;16.48;4.88;;;998.40;1203.20;;;;;;4871486;29;20076;-80
2021/06/23 08:10:05;;;;;;;12.88;4.78;;;998.60;1152.00;;;;;;4871430;29;20444;-81
2021/06/23 08:12:51;;;;;;;15.40;5.28;;;998.60;1152.00;;;;;;4874787;29;20514;-81
2021/06/23 08:15:17;;;;;;;12.13;5.72;;;998.60;1177.60;;;;;;4856168;29;20029;-81
2021/06/23 08:17:42;;;;;;;15.38;5.30;;;999.10;1152.00;;;;;;4871212;29;20413;-81
2021/06/23 08:20:10;;;;;;;19.38;6.43;;;999.00;1177.60;;;;;;4875473;29;20041;-81
2021/06/23 08:22:36;;;;;;;15.88;5.20;;;999.10;1177.60;;;;;;4874897;29;20078;-85
2021/06/23 08:25:02;;;;;;;16.15;6.03;;;999.00;1177.60;;;;;;4877020;29;20033;-82
2021/06/23 08:27:28;;;;;;;16.50;5.88;;;999.10;1152.00;;;;;;4861638;29;20037;-83
2021/06/23 08:29:54;;;;;;;17.20;5.78;;;999.20;1177.60;;;;;;4861256;29;20025;-83
2021/06/23 08:32:19;;;;;;;19.13;6.05;;;1024.10;1152.00;;;;;;4880741;29;20043;-82
2021/06/23 08:34:45;;;;;;;20.55;5.43;;;999.20;1177.60;;;;;;4908879;29;20437;-82
2021/06/23 08:37:11;;;;;;;13.43;4.88;;;1024.30;1152.00;;;;;;4908321;29;20043;-81
2021/06/23 08:39:36;;;;;;;15.43;6.18;;;1024.20;1152.00;;;;;;4890620;29;20032;-84
2021/06/23 08:42:03;;;;;;;12.48;5.93;;;1024.10;1152.00;;;;;;4909809;29;20468;-83
2021/06/23 08:44:28;;;;;;;12.75;4.95;;;1024.50;1126.40;;;;;;4906755;29;20137;-83
2021/06/23 08:46:55;;;;;;;12.25;4.75;;;1024.40;1100.80;;;;;;4894063;29;20118;-86
2021/06/23 08:49:21;;;;;;;14.18;5.22;;;1024.70;1100.80;;;;;;4889823;29;20119;-81
2021/06/23 08:51:47;;;;;;;10.43;5.47;;;1049.90;1075.20;;;;;;4906481;29;20111;-83
2021/06/23 08:54:13;;;;;;;12.13;5.38;;;1049.90;1075.20;;;;;;4890914;29;20529;-83
2021/06/23 08:56:39;;;;;;;27.33;7.35;;;1050.20;1049.60;;;;;;4892238;29;20021;-84
2021/06/23 08:59:06;;;;;;;15.93;5.65;;;1050.10;1049.60;;;;;;4893761;29;20492;-83
2021/06/23 09:01:32;;;;;;;9.40;3.97;;;1050.20;1049.60;;;;;;4891804;29;20055;-83
2021/06/23 09:04:11;;;;;;;18.35;5.32;;;1049.70;1024.00;;;;;;4909982;29;20040;-84
2021/06/23 09:06:46;;;;;;;12.27;4.60;;;1049.70;1024.00;;;;;;4894730;29;20032;-83
2021/06/23 09:09:14;;;;;;;;;;;1050.20;1024.00;;;;;;4914476;29;21525;-83
2021/06/23 09:11:41;;;;;;;10.65;4.15;;;1050.30;1024.00;;;;;;4899599;29;20126;-82
2021/06/23 09:14:11;;;;;;;13.32;5.00;;;1050.20;998.40;;;;;;4892140;29;20040;-83
2021/06/23 09:16:57;;;;;;;11.85;5.40;;;1075.20;998.40;;;;;;4909375;29;20039;-83
2021/06/23 09:19:28;;;;;;;12.00;4.45;;;1075.20;972.80;;;;;;4911459;29;20056;-83
2021/06/23 09:21:54;;;;;;;9.05;3.92;;;1075.30;972.80;;;;;;4895659;29;20083;-83
2021/06/23 09:24:20;;;;;;;15.80;4.88;;;1076.00;972.80;;;;;;4895025;29;20039;-83
2021/06/23 09:26:46;;;;;;;11.48;5.05;;;1076.10;947.20;;;;;;4910156;29;20385;-83
2021/06/23 09:29:13;;;;;;;6.47;3.63;;;1076.00;972.80;;;;;;4894306;29;20196;-81
2021/06/23 09:31:59;;;;;;;9.85;5.28;;;1100.80;998.40;;;;;;4908155;29;20036;-84
2021/06/23 09:34:32;;;;;;;9.98;5.15;;;1101.30;972.80;;;;;;4908568;29;20020;-85
2021/06/23 09:36:59;;;;;;;10.30;4.70;;;1100.90;998.40;;;;;;4900875;29;20025;-82
2021/06/23 09:39:27;;;;;;;13.90;5.05;;;1101.40;972.80;;;;;;4909064;29;20502;-84
2021/06/23 09:41:53;;;;;;;11.30;3.92;;;1101.50;947.20;;;;;;4910511;29;20047;-83
2021/06/23 09:44:21;;;;;;;8.57;3.95;;;1101.40;947.20;;;;;;4892878;29;20402;-85
2021/06/23 09:46:48;;;;;;;11.63;3.88;;;1101.40;947.20;;;;;;4895679;29;20040;-85
2021/06/23 09:49:37;;;;;;;10.32;3.40;;;1101.40;921.60;;;;;;4895867;29;20044;-84
2021/06/23 09:52:14;;;;;;;10.38;3.88;;;1101.60;921.60;;;;;;4908093;29;20043;-84
2021/06/23 09:54:51;;;;;;;9.80;3.15;;;1127.00;921.60;;;;;;4893103;29;20032;-84
2021/06/23 09:57:18;;;;;;;13.52;5.47;;;1126.70;921.60;;;;;;4910026;29;20103;-84
2021/06/23 09:59:57;;;;;;;12.70;4.63;;;1126.70;921.60;;;;;;4892036;29;20020;-84
2021/06/23 10:02:37;;;;;;;10.27;3.80;;;1126.70;921.60;;;;;;4907570;29;20024;-85
2021/06/23 10:05:18;;;;;;;11.80;3.60;;;1127.30;896.00;;;;;;4905163;29;20052;-83
2021/06/23 10:07:48;;;;;;;6.68;3.97;;;1127.10;896.00;;;;;;4908479;29;20040;-85
2021/06/23 10:10:40;;;;;;;6.45;3.30;;;1126.80;896.00;;;;;;4906810;29;20048;-85
2021/06/23 10:13:06;;;;;;;9.23;4.03;;;1127.20;896.00;;;;;;4892613;29;20039;-85
2021/06/23 10:15:32;;;;;;;12.88;4.57;;;1126.70;921.60;;;;;;4889060;29;20037;-86
2021/06/23 10:17:58;;;;;;;12.27;3.78;;;1126.80;896.00;;;;;;4898177;29;20478;-85
2021/06/23 10:20:24;;;;;;;6.20;3.22;;;1127.00;896.00;;;;;;4908457;29;20032;-85
2021/06/23 10:22:50;;;;;;;11.40;3.42;;;1127.20;870.40;;;;;;4892137;29;20045;-81
2021/06/23 10:25:17;;;;;;;6.82;4.00;;;1127.00;896.00;;;;;;4890963;29;20127;-83
2021/06/23 10:27:47;;;;;;;7.78;3.65;;;1126.90;896.00;;;;;;4893258;29;20413;-85
2021/06/23 10:30:14;;;;;;;8.32;4.05;;;1126.80;896.00;;;;;;4884771;29;20120;-84
2021/06/23 10:32:40;;;;;;;9.63;3.90;;;1126.80;896.00;;;;;;4899721;29;20035;-83
2021/06/23 10:35:06;;;;;;;9.88;3.42;;;1126.90;896.00;;;;;;4903481;29;20024;-81
2021/06/23 10:37:36;;;;;;;8.20;3.85;;;1127.00;870.40;;;;;;4890054;29;20055;-83
2021/06/23 10:40:14;;;;;;;14.75;3.80;;;1101.50;896.00;;;;;;4884573;29;20679;-80
2021/06/23 10:42:40;;;;;;;12.18;4.22;;;1126.40;921.60;;;;;;4890959;29;20103;-83
2021/06/23 10:45:07;;;;;;;8.23;4.25;;;1126.40;896.00;;;;;;4887967;29;20134;-83
2021/06/23 10:47:39;;;;;;;17.30;5.40;;;1126.90;870.40;;;;;;4887177;29;20529;-84
2021/06/23 10:50:33;;;;;;;7.82;3.80;;;1127.10;870.40;;;;;;4881755;29;20041;-84
2021/06/23 10:53:01;;;;;;;9.55;3.88;;;1127.20;896.00;;;;;;4877859;29;20047;-85
2021/06/23 10:55:26;;;;;;;11.10;4.22;;;1152.00;870.40;;;;;;4883982;29;20025;-84
2021/06/23 10:58:02;;;;;;;11.30;4.35;;;1152.20;844.80;;;;;;4888059;29;20294;-83
2021/06/23 11:00:31;;;;;;;13.05;5.95;;;1152.10;844.80;;;;;;4885589;29;20084;-84
2021/06/23 11:03:06;;;;;;;12.77;4.78;;;1127.20;870.40;;;;;;4887547;29;20028;-84
2021/06/23 11:05:41;;;;;;;8.10;3.90;;;1152.30;870.40;;;;;;4886910;29;20029;-84
2021/06/23 11:08:27;;;;;;;10.15;3.88;;;1152.70;844.80;;;;;;4876772;29;20418;-85
2021/06/23 11:10:54;;;;;;;16.30;4.38;;;1152.50;844.80;;;;;;4886885;29;20243;-86
2021/06/23 11:13:23;;;;;;;8.38;4.32;;;1152.50;844.80;;;;;;4881431;29;20036;-86
2021/06/23 11:15:51;;;;;;;14.18;4.80;;;1152.80;819.20;;;;;;4888610;29;20032;-85
2021/06/23 11:18:22;;;;;;;13.45;4.63;;;1178.20;819.20;;;;;;4876676;29;20036;-85
2021/06/23 11:20:55;;;;;;;15.38;4.07;;;1178.30;793.60;;;;;;4884977;29;20076;-85
2021/06/23 11:23:50;;;;;;;10.38;4.07;;;1178.20;793.60;;;;;;4889363;29;20028;-85
2021/06/23 11:26:19;;;;;;;13.65;5.72;;;1152.80;819.20;;;;;;4877796;29;20017;-83
2021/06/23 11:28:48;;;;;;;11.68;4.30;;;1152.20;844.80;;;;;;4889482;29;20092;-84
2021/06/23 11:31:13;;;;;;;11.13;4.53;;;1152.50;819.20;;;;;;4888858;29;20080;-85
2021/06/23 11:33:39;;;;;;;17.40;5.25;;;1177.70;793.60;;;;;;4880447;29;20033;-85
2021/06/23 11:36:06;;;;;;;18.65;5.95;;;1177.90;793.60;;;;;;4895107;29;20043;-84
2021/06/23 11:38:33;;;;;;;12.07;4.85;;;1177.90;819.20;;;;;;4891149;29;20172;-84
2021/06/23 11:40:59;;;;;;;11.68;5.32;;;1177.80;793.60;;;;;;4886773;29;20113;-84
2021/06/23 11:43:26;;;;;;;12.15;3.90;;;1177.80;793.60;;;;;;4878750;29;20028;-84
2021/06/23 11:45:54;;;;;;;17.67;4.80;;;1177.90;793.60;;;;;;4890951;29;20028;-84
2021/06/23 11:48:19;;;;;;;20.15;4.95;;;1178.30;793.60;;;;;;4883379;29;20037;-83
2021/06/23 11:50:46;;;;;;;18.85;4.95;;;1178.10;819.20;;;;;;4890617;29;20031;-83
2021/06/23 11:53:16;;;;;;;12.50;4.72;;;1177.90;819.20;;;;;;4888042;29;20061;-84
2021/06/23 11:55:43;;;;;;;14.05;5.30;;;1178.10;793.60;;;;;;4888194;29;20029;-89
2021/06/23 11:58:10;;;;;;;14.90;4.50;;;1177.90;793.60;;;;;;4878640;29;20029;-88
2021/06/23 12:00:37;;;;;;;9.68;4.53;;;1178.30;793.60;;;;;;4892361;29;20048;-87
2021/06/23 12:03:05;;;;;;;13.65;4.60;;;1177.80;793.60;;;;;;4887597;29;20088;-88
2021/06/23 12:05:31;;;;;;;14.38;4.32;;;1178.10;793.60;;;;;;4890178;29;20059;-87
2021/06/23 12:07:57;;;;;;;13.85;5.18;;;1203.50;768.00;;;;;;4891555;29;20040;-85
2021/06/23 12:10:26;;;;;;;13.80;4.70;;;1203.80;768.00;;;;;;4887887;29;20037;-85
2021/06/23 12:12:53;;;;;;;18.05;5.05;;;1228.90;793.60;;;;;;4877276;29;20447;-84
2021/06/23 12:15:21;;;;;;;17.75;4.90;;;1229.00;793.60;;;;;;4888208;29;20046;-87
2021/06/23 12:17:48;;;;;;;16.05;5.10;;;1228.90;819.20;;;;;;4886042;29;20057;-89
2021/06/23 12:20:15;;;;;;;14.38;6.72;;;1203.90;793.60;;;;;;4880056;29;20035;-88
2021/06/23 12:22:41;;;;;;;14.15;4.82;;;1203.50;793.60;;;;;;4893938;29;20029;-91